Chester, West Virginia
Current Conditions -  °F | °C
As of 9:51 PM on Friday 28 Nov 2014 (Local Time) from KPIT Reporting Station
Overcast Overcast  
Wind Chill: 19°   Ceiling: 9000
Heat Index: 26°   Visibility: 10mi
Dew Point: 19°   Wind: 6mph
Humidity: 75%   Direction: 160°SSE
Pressure: 30.19"   Gusts: NA
Location:  40.61°N, 80.56°W
Report Text: KPIT 290251Z 16005KT 10SM OVC090 M03/M07 A3019 RMK AO2 SLP246 T10331072 56010
Loading
Personal Weather Stations






























Interactive Weather Map New forecast layout! Learn more

10-Day Weather Forecast

Advertisements
Track Severe Weather on mobile